Time;durP1;ratioP1;P1;durP2;ratioP2;P2;SDS_P1;SDS_P2;PMS_P1;PMS_P2;Temp;Humidity;BMP_temperature;BMP_pressure;BME280_temperature;BME280_humidity;BME280_pressure;Samples;Min_cycle;Max_cycle;Signal;HPM_P1;HPM_P2
2023/09/14 00:01:14;;;;;;;;;;;;;;;18.11;71.46;98330.03;5026173;28;19929;-61
2023/09/14 00:03:42;;;;;;;;;;;;;;;18.08;71.64;98331.53;5026335;28;19949;-61
2023/09/14 00:06:10;;;;;;;;;;;;;;;18.03;71.40;98323.53;5028500;28;20318;-61
2023/09/14 00:08:37;;;;;;;;;;;;;;;17.99;71.49;98323.44;5029495;28;19933;-61
2023/09/14 00:11:05;;;;;;;;;;;;;;;17.97;71.48;98325.75;5028737;28;20420;-61
2023/09/14 00:13:33;;;;;;;;;;;;;;;17.95;71.34;98327.22;5010060;28;19925;-61
2023/09/14 00:16:01;;;;;;;;;;;;;;;17.86;71.33;98321.88;5022757;28;19971;-61
2023/09/14 00:18:30;;;;;;;;;;;;;;;17.77;71.49;98313.78;5028780;28;20677;-61
2023/09/14 00:20:58;;;;;;;;;;;;;;;17.74;71.68;98324.69;5027291;28;19929;-60
2023/09/14 00:23:25;;;;;;;;;;;;;;;17.72;72.21;98329.69;5023840;28;19929;-61
2023/09/14 00:25:53;;;;;;;;;;;;;;;17.70;71.96;98332.78;5030618;28;19932;-61
2023/09/14 00:28:21;;;;;;;;;;;;;;;17.71;71.96;98328.88;5013748;28;19975;-61
2023/09/14 00:30:51;;;;;;;;;;;;;;;17.73;71.96;98342.31;5003827;28;19956;-61
2023/09/14 00:33:18;;;;;;;;;;;;;;;17.73;71.94;98345.03;5025002;28;19929;-61
2023/09/14 00:35:48;;;;;;;;;;;;;;;17.73;72.03;98353.28;5024168;28;19925;-61
2023/09/14 00:38:15;;;;;;;;;;;;;;;17.69;72.46;98353.19;5007733;28;19925;-61
2023/09/14 00:40:43;;;;;;;;;;;;;;;17.71;72.67;98355.56;5028771;28;20401;-61
2023/09/14 00:43:12;;;;;;;;;;;;;;;17.71;72.47;98356.38;5025863;28;19981;-61
2023/09/14 00:45:40;;;;;;;;;;;;;;;17.69;72.44;98350.44;5026899;28;20370;-61
2023/09/14 00:48:07;;;;;;;;;;;;;;;17.68;72.49;98346.06;5010904;28;20313;-61
2023/09/14 00:50:35;;;;;;;;;;;;;;;17.64;72.54;98347.91;5011509;28;19925;-61
2023/09/14 00:53:06;;;;;;;;;;;;;;;17.64;72.37;98344.38;5027111;28;19998;-61
2023/09/14 00:55:35;;;;;;;;;;;;;;;17.70;72.33;98342.97;5025763;28;20024;-61
2023/09/14 00:58:04;;;;;;;;;;;;;;;17.67;72.03;98344.47;5024802;28;19983;-61
2023/09/14 01:00:32;;;;;;;;;;;;;;;17.63;71.75;98346.31;5018653;28;20426;-61
2023/09/14 01:02:59;;;;;;;;;;;;;;;17.63;71.80;98349.06;5024709;28;19936;-61
2023/09/14 01:05:28;;;;;;;;;;;;;;;17.63;71.58;98351.81;5034507;28;19925;-61
2023/09/14 01:07:56;;;;;;;;;;;;;;;17.57;71.43;98350.44;5012772;28;19926;-61
2023/09/14 01:10:25;;;;;;;;;;;;;;;17.50;71.49;98350.22;5030211;28;20414;-61
2023/09/14 01:12:53;;;;;;;;;;;;;;;17.56;71.33;98357.09;5007085;28;19929;-61
2023/09/14 01:15:23;;;;;;;;;;;;;;;17.53;71.23;98352.28;4992597;28;19933;-61
2023/09/14 01:17:54;;;;;;;;;;;;;;;17.49;71.17;98348.63;5028295;28;20022;-60
2023/09/14 01:20:38;;;;;;;;;;;;;;;17.45;71.19;98344.97;5012748;28;19933;-61
2023/09/14 01:23:09;;;;;;;;;;;;;;;17.49;71.51;98348.63;5003205;28;19925;-61
2023/09/14 01:25:42;;;;;;;;;;;;;;;17.49;71.38;98348.63;5013945;28;19932;-61
2023/09/14 01:28:13;;;;;;;;;;;;;;;17.47;71.16;98350.91;5009944;28;19959;-61
2023/09/14 01:30:42;;;;;;;;;;;;;;;17.42;70.92;98348.44;5010289;28;19930;-60
2023/09/14 01:33:10;;;;;;;;;;;;;;;17.34;70.85;98355.63;5010308;28;19933;-61
2023/09/14 01:35:39;;;;;;;;;;;;;;;17.29;70.89;98361.34;5029504;28;19929;-61
2023/09/14 01:38:07;;;;;;;;;;;;;;;17.30;70.72;98360.19;5014974;28;19925;-61
2023/09/14 01:40:36;;;;;;;;;;;;;;;17.27;70.85;98358.97;5013394;28;19925;-61
2023/09/14 01:43:06;;;;;;;;;;;;;;;17.31;70.79;98363.75;5030548;28;19952;-61
2023/09/14 01:45:34;;;;;;;;;;;;;;;17.34;70.61;98357.56;5005735;28;19925;-61
2023/09/14 01:48:01;;;;;;;;;;;;;;;17.38;70.20;98355.75;5023657;28;20013;-61
2023/09/14 01:50:29;;;;;;;;;;;;;;;17.38;69.81;98358.50;5028852;28;19932;-61
2023/09/14 01:52:57;;;;;;;;;;;;;;;17.34;69.50;98352.09;5031779;28;19929;-61
2023/09/14 01:55:25;;;;;;;;;;;;;;;17.32;69.46;98346.16;4997821;28;20131;-61
2023/09/14 01:57:54;;;;;;;;;;;;;;;17.33;69.48;98362.28;5030975;28;20375;-61
2023/09/14 02:00:25;;;;;;;;;;;;;;;17.33;69.48;98355.97;5005985;28;20651;-61
2023/09/14 02:02:53;;;;;;;;;;;;;;;17.28;69.38;98349.56;5026305;28;19925;-61
2023/09/14 02:05:46;;;;;;;;;;;;;;;17.25;69.47;98365.94;5026353;28;19925;-61
2023/09/14 02:08:14;;;;;;;;;;;;;;;17.20;69.30;98364.22;5029000;28;20298;-61
2023/09/14 02:10:43;;;;;;;;;;;;;;;17.17;69.57;98361.38;4942112;28;1878954;-61
2023/09/14 02:13:10;;;;;;;;;;;;;;;17.11;69.53;98363.53;5027384;28;20056;-65
2023/09/14 02:15:40;;;;;;;;;;;;;;;17.01;69.83;98356.56;5003203;28;19965;-61
2023/09/14 02:18:08;;;;;;;;;;;;;;;17.01;70.01;98355.75;5031095;28;20393;-61
2023/09/14 02:20:36;;;;;;;;;;;;;;;17.06;69.93;98354.72;5010001;28;19925;-61
2023/09/14 02:23:04;;;;;;;;;;;;;;;17.05;69.69;98348.44;5031386;28;20550;-61
2023/09/14 02:25:31;;;;;;;;;;;;;;;17.10;69.61;98358.38;5028820;28;19929;-61
2023/09/14 02:28:00;;;;;;;;;;;;;;;17.06;69.16;98352.78;5014070;28;19925;-61
2023/09/14 02:30:28;;;;;;;;;;;;;;;17.03;69.38;98354.25;5006775;28;19929;-60
2023/09/14 02:32:58;;;;;;;;;;;;;;;17.03;69.32;98351.50;5013913;28;19936;-61
2023/09/14 02:35:25;;;;;;;;;;;;;;;17.09;69.36;98357.56;5010080;28;19925;-61
2023/09/14 02:37:53;;;;;;;;;;;;;;;17.10;69.09;98353.72;5033649;28;19933;-61
2023/09/14 02:40:21;;;;;;;;;;;;;;;17.08;68.97;98360.66;5031893;28;20436;-61
2023/09/14 02:42:49;;;;;;;;;;;;;;;17.03;69.05;98361.69;5029191;28;20287;-60
2023/09/14 02:45:16;;;;;;;;;;;;;;;17.00;69.23;98374.19;5014731;28;19929;-61
2023/09/14 02:47:44;;;;;;;;;;;;;;;16.94;69.44;98366.50;5009064;28;20404;-61
2023/09/14 02:50:14;;;;;;;;;;;;;;;16.96;69.49;98372.44;5029283;28;20031;-61
2023/09/14 02:52:42;;;;;;;;;;;;;;;17.01;69.56;98373.03;5010083;28;20290;-61
2023/09/14 02:55:11;;;;;;;;;;;;;;;16.98;69.25;98378.38;5020852;28;19925;-61
2023/09/14 02:57:38;;;;;;;;;;;;;;;16.94;69.46;98366.50;5034450;28;20375;-61
2023/09/14 03:00:13;;;;;;;;;;;;;;;16.88;69.42;98367.84;5001982;28;19925;-61
2023/09/14 03:02:41;;;;;;;;;;;;;;;16.81;69.85;98367.63;5012616;28;19925;-61
2023/09/14 03:05:09;;;;;;;;;;;;;;;16.75;69.93;98364.31;5012256;28;19990;-61
2023/09/14 03:07:39;;;;;;;;;;;;;;;16.71;70.30;98372.41;5007426;28;19960;-61
2023/09/14 03:10:07;;;;;;;;;;;;;;;16.71;70.34;98374.34;5015332;28;19925;-61
2023/09/14 03:12:35;;;;;;;;;;;;;;;16.68;70.33;98375.03;5009993;28;19979;-61
2023/09/14 03:15:03;;;;;;;;;;;;;;;16.68;70.50;98370.34;5021624;28;19983;-61
2023/09/14 03:17:33;;;;;;;;;;;;;;;16.72;70.52;98370.47;5018074;28;19926;-61
2023/09/14 03:20:01;;;;;;;;;;;;;;;16.76;70.35;98371.38;5011377;28;19936;-61
2023/09/14 03:22:30;;;;;;;;;;;;;;;16.77;70.33;98378.47;5030773;28;20048;-61
2023/09/14 03:25:00;;;;;;;;;;;;;;;16.75;70.30;98376.06;5028118;28;19928;-61
2023/09/14 03:27:28;;;;;;;;;;;;;;;16.73;70.39;98378.38;5027181;28;20329;-61
2023/09/14 03:29:55;;;;;;;;;;;;;;;16.73;70.49;98381.13;5024988;28;19935;-61
2023/09/14 03:32:23;;;;;;;;;;;;;;;16.71;70.45;98386.13;5025194;28;19925;-61
2023/09/14 03:34:51;;;;;;;;;;;;;;;16.70;70.74;98389.97;5025287;28;19925;-61
2023/09/14 03:37:19;;;;;;;;;;;;;;;16.69;70.78;98390.34;5011497;28;19932;-61
2023/09/14 03:39:47;;;;;;;;;;;;;;;16.67;70.99;98393.44;5011217;28;19933;-61
2023/09/14 03:42:17;;;;;;;;;;;;;;;16.66;71.01;98388.25;5009870;28;19936;-61
2023/09/14 03:44:44;;;;;;;;;;;;;;;16.64;71.27;98391.34;5026203;28;19933;-61
2023/09/14 03:47:12;;;;;;;;;;;;;;;16.63;71.60;98388.94;5019302;28;19962;-60
2023/09/14 03:49:40;;;;;;;;;;;;;;;16.63;71.58;98394.44;5028975;28;20002;-61
2023/09/14 03:52:07;;;;;;;;;;;;;;;16.64;71.43;98391.34;5012598;28;19925;-61
2023/09/14 03:54:37;;;;;;;;;;;;;;;16.64;71.50;98396.03;5009660;28;19968;-61
2023/09/14 03:57:14;;;;;;;;;;;;;;;16.64;71.64;98396.84;5007550;28;20446;-61
2023/09/14 03:59:44;;;;;;;;;;;;;;;16.64;71.75;98390.56;5025736;28;19925;-61
2023/09/14 04:02:11;;;;;;;;;;;;;;;16.64;71.80;98390.56;5008534;28;20000;-61
2023/09/14 04:04:40;;;;;;;;;;;;;;;16.64;71.86;98394.09;5027906;28;19925;-61
2023/09/14 04:07:08;;;;;;;;;;;;;;;16.64;71.88;98396.84;5009282;28;19975;-61
2023/09/14 04:09:35;;;;;;;;;;;;;;;16.65;71.94;98403.13;5001071;28;20398;-62
2023/09/14 04:12:03;;;;;;;;;;;;;;;16.70;71.76;98400.97;5002373;28;20450;-61
2023/09/14 04:14:31;;;;;;;;;;;;;;;16.70;72.03;98403.69;4995375;28;19934;-60
2023/09/14 04:17:01;;;;;;;;;;;;;;;16.65;72.20;98408.59;5003242;28;19929;-61
2023/09/14 04:19:29;;;;;;;;;;;;;;;16.56;72.35;98408.69;4995822;28;19926;-61
2023/09/14 04:21:59;;;;;;;;;;;;;;;16.52;72.52;98412.47;4995482;28;19965;-62
2023/09/14 04:24:28;;;;;;;;;;;;;;;16.47;72.57;98408.00;5005370;28;19944;-61
2023/09/14 04:26:56;;;;;;;;;;;;;;;16.43;72.72;98413.34;4997782;28;20382;-61
2023/09/14 04:29:24;;;;;;;;;;;;;;;16.41;72.74;98425.81;5016961;28;19926;-61
2023/09/14 04:31:52;;;;;;;;;;;;;;;16.36;73.05;98421.31;5003425;28;19925;-61
2023/09/14 04:34:21;;;;;;;;;;;;;;;16.33;72.88;98423.94;5022409;28;19926;-62
2023/09/14 04:36:49;;;;;;;;;;;;;;;16.35;72.97;98424.38;5022250;28;19936;-61
2023/09/14 04:39:17;;;;;;;;;;;;;;;16.36;73.14;98426.00;5022479;28;19925;-61
2023/09/14 04:41:50;;;;;;;;;;;;;;;16.38;72.94;98431.94;4999283;28;19929;-61
2023/09/14 04:44:18;;;;;;;;;;;;;;;16.36;73.08;98426.00;5011747;28;19925;-61
2023/09/14 04:46:45;;;;;;;;;;;;;;;16.41;73.08;98440.31;4991282;28;20657;-61
2023/09/14 04:49:13;;;;;;;;;;;;;;;16.41;72.83;98440.31;5008633;28;19972;-61
2023/09/14 04:51:42;;;;;;;;;;;;;;;16.42;72.76;98438.38;4990915;28;19925;-61
2023/09/14 04:54:11;;;;;;;;;;;;;;;16.41;72.60;98439.50;5008969;28;19925;-61
2023/09/14 04:56:39;;;;;;;;;;;;;;;16.41;72.86;98436.78;5008630;28;19972;-60
2023/09/14 04:59:07;;;;;;;;;;;;;;;16.43;72.74;98439.97;5010491;28;19934;-61
2023/09/14 05:01:37;;;;;;;;;;;;;;;16.47;72.83;98435.41;4994080;28;19972;-62
2023/09/14 05:04:05;;;;;;;;;;;;;;;16.49;72.37;98433.13;5010708;28;19941;-61
2023/09/14 05:06:33;;;;;;;;;;;;;;;16.52;72.36;98442.63;5008617;28;19933;-61
2023/09/14 05:09:02;;;;;;;;;;;;;;;16.55;72.14;98434.50;4990294;28;19925;-62
2023/09/14 05:11:30;;;;;;;;;;;;;;;16.55;71.99;98439.19;4991077;28;20403;-61
2023/09/14 05:13:58;;;;;;;;;;;;;;;16.55;71.86;98448.22;4990789;28;19936;-61
2023/09/14 05:16:26;;;;;;;;;;;;;;;16.57;71.53;98440.47;4987939;28;19969;-60
2023/09/14 05:18:53;;;;;;;;;;;;;;;16.58;71.55;98436.59;4989319;28;19925;-62
2023/09/14 05:21:21;;;;;;;;;;;;;;;16.53;71.58;98445.03;5002235;28;19925;-61
2023/09/14 05:23:49;;;;;;;;;;;;;;;16.50;71.73;98445.69;4989683;28;19979;-61
2023/09/14 05:26:18;;;;;;;;;;;;;;;16.45;71.89;98445.91;5003815;28;19929;-61
2023/09/14 05:28:47;;;;;;;;;;;;;;;16.42;72.04;98450.13;4998153;28;19930;-61
2023/09/14 05:31:15;;;;;;;;;;;;;;;16.39;72.39;98445.31;4999160;28;19932;-61
2023/09/14 05:33:43;;;;;;;;;;;;;;;16.30;72.43;98436.38;5004756;28;20024;-62
2023/09/14 05:36:11;;;;;;;;;;;;;;;16.36;72.51;98453.44;5002214;28;19952;-61
2023/09/14 05:38:41;;;;;;;;;;;;;;;16.33;72.73;98456.81;5001970;28;20037;-61
2023/09/14 05:41:09;;;;;;;;;;;;;;;16.31;72.71;98453.63;4999789;28;20075;-61
2023/09/14 05:43:38;;;;;;;;;;;;;;;16.33;72.71;98456.81;5008485;28;20286;-62
2023/09/14 05:46:06;;;;;;;;;;;;;;;16.34;72.68;98455.69;5003747;28;19929;-61
2023/09/14 05:48:34;;;;;;;;;;;;;;;16.34;72.75;98453.75;5002617;28;19926;-60
2023/09/14 05:51:02;;;;;;;;;;;;;;;16.31;72.71;98462.66;5011397;28;19930;-61
2023/09/14 05:53:30;;;;;;;;;;;;;;;16.33;72.69;98463.09;5013662;28;19932;-61
2023/09/14 05:55:58;;;;;;;;;;;;;;;16.34;72.82;98470.19;5010896;28;19932;-61
2023/09/14 05:58:27;;;;;;;;;;;;;;;16.32;72.42;98466.19;5010728;28;19930;-61
2023/09/14 06:00:56;;;;;;;;;;;;;;;16.31;72.31;98470.88;5008959;28;19944;-63
2023/09/14 06:03:23;;;;;;;;;;;;;;;16.24;71.86;98471.44;5013369;28;20434;-61
2023/09/14 06:05:52;;;;;;;;;;;;;;;16.28;71.90;98465.25;5004720;28;19995;-61
2023/09/14 06:08:23;;;;;;;;;;;;;;;16.32;71.70;98477.97;4993880;28;20284;-62
2023/09/14 06:10:51;;;;;;;;;;;;;;;16.35;71.29;98482.78;5009762;28;19929;-61
2023/09/14 06:13:20;;;;;;;;;;;;;;;16.33;70.67;98476.81;4991747;28;19926;-61
2023/09/14 06:15:51;;;;;;;;;;;;;;;16.35;70.91;98477.31;5005315;28;20353;-61
2023/09/14 06:18:20;;;;;;;;;;;;;;;16.39;70.63;98480.16;5032302;28;19931;-61
2023/09/14 06:20:48;;;;;;;;;;;;;;;16.39;70.29;98488.38;5028333;28;19936;-61
2023/09/14 06:23:16;;;;;;;;;;;;;;;16.35;70.13;98484.69;5030945;28;19929;-62
2023/09/14 06:25:44;;;;;;;;;;;;;;;16.34;70.19;98474.88;5027567;28;20439;-61
2023/09/14 06:28:12;;;;;;;;;;;;;;;16.33;70.05;98487.78;5029657;28;19936;-61
2023/09/14 06:30:40;;;;;;;;;;;;;;;16.31;70.16;98486.53;5020057;28;19926;-61
2023/09/14 06:33:08;;;;;;;;;;;;;;;16.29;70.33;98486.84;5010523;28;19940;-61
2023/09/14 06:35:37;;;;;;;;;;;;;;;16.26;70.52;98489.47;5013330;28;20394;-61
2023/09/14 06:38:06;;;;;;;;;;;;;;;16.20;70.70;98491.63;5013111;28;19925;-62
2023/09/14 06:40:37;;;;;;;;;;;;;;;16.20;70.76;98495.16;5013592;28;19952;-61
2023/09/14 06:43:04;;;;;;;;;;;;;;;16.18;70.56;98500.16;5007963;28;19979;-62
2023/09/14 06:45:33;;;;;;;;;;;;;;;16.15;70.54;98489.06;5002777;28;19926;-61
2023/09/14 06:48:01;;;;;;;;;;;;;;;16.19;70.49;98496.28;5005965;28;19925;-61
2023/09/14 06:50:28;;;;;;;;;;;;;;;16.22;70.62;98492.06;5010827;28;19964;-61
2023/09/14 06:52:57;;;;;;;;;;;;;;;16.16;70.50;98496.16;5009793;28;19940;-61
2023/09/14 06:55:25;;;;;;;;;;;;;;;16.16;70.67;98496.16;5013351;28;19926;-62
2023/09/14 06:57:53;;;;;;;;;;;;;;;16.13;70.57;98497.59;5006934;28;19933;-62
2023/09/14 07:00:21;;;;;;;;;;;;;;;16.11;70.70;98504.56;5003735;28;19933;-61
2023/09/14 07:02:49;;;;;;;;;;;;;;;16.09;70.89;98498.63;5027368;28;19929;-61
2023/09/14 07:05:20;;;;;;;;;;;;;;;16.10;70.79;98506.50;5026601;28;19937;-61
2023/09/14 07:07:48;;;;;;;;;;;;;;;16.13;70.98;98507.78;5027792;28;19929;-63
2023/09/14 07:10:17;;;;;;;;;;;;;;;16.12;71.07;98504.22;5027980;28;19929;-63
2023/09/14 07:12:45;;;;;;;;;;;;;;;16.13;70.92;98511.31;5029239;28;19940;-61
2023/09/14 07:15:13;;;;;;;;;;;;;;;16.15;71.02;98506.31;5022830;28;19932;-61
2023/09/14 07:17:40;;;;;;;;;;;;;;;16.20;70.94;98514.34;5028190;28;19925;-62
2023/09/14 07:20:09;;;;;;;;;;;;;;;16.28;70.90;98514.59;5029413;28;19933;-61
2023/09/14 07:22:38;;;;;;;;;;;;;;;16.30;70.88;98517.81;5027921;28;19933;-61
2023/09/14 07:25:06;;;;;;;;;;;;;;;16.28;70.71;98509.13;5025707;28;19925;-61
2023/09/14 07:27:35;;;;;;;;;;;;;;;16.28;71.22;98517.34;5026936;28;19925;-61
2023/09/14 07:30:04;;;;;;;;;;;;;;;16.28;70.96;98518.16;5026315;28;19929;-60
2023/09/14 07:32:33;;;;;;;;;;;;;;;16.29;71.29;98517.00;5025620;28;19931;-61
2023/09/14 07:35:02;;;;;;;;;;;;;;;16.31;71.18;98519.44;5022943;28;19933;-61
2023/09/14 07:37:30;;;;;;;;;;;;;;;16.33;71.07;98522.63;5031314;28;19925;-61
2023/09/14 07:39:58;;;;;;;;;;;;;;;16.32;70.98;98513.59;5024318;28;19987;-62
2023/09/14 07:42:26;;;;;;;;;;;;;;;16.33;70.75;98520.69;5024498;28;19934;-62
2023/09/14 07:44:54;;;;;;;;;;;;;;;16.34;71.00;98518.75;5022168;28;19951;-61
2023/09/14 07:47:24;;;;;;;;;;;;;;;16.34;71.20;98518.75;5017524;28;19925;-61
2023/09/14 07:49:52;;;;;;;;;;;;;;;16.35;71.13;98520.34;5027985;28;19939;-61
2023/09/14 07:52:20;;;;;;;;;;;;;;;16.38;71.19;98530.66;5027642;28;19937;-61
2023/09/14 07:54:48;;;;;;;;;;;;;;;16.41;71.06;98519.03;5026976;28;19929;-62
2023/09/14 07:57:16;;;;;;;;;;;;;;;16.44;71.33;98526.56;5027152;28;20367;-62
2023/09/14 07:59:44;;;;;;;;;;;;;;;16.43;71.34;98528.53;5020936;28;19933;-62
2023/09/14 08:02:13;;;;;;;;;;;;;;;16.44;71.18;98529.31;5022647;28;20294;-61
2023/09/14 08:04:41;;;;;;;;;;;;;;;16.44;71.04;98532.88;5025200;28;19980;-62
2023/09/14 08:07:09;;;;;;;;;;;;;;;16.44;71.51;98537.56;5025171;28;19925;-62
2023/09/14 08:09:37;;;;;;;;;;;;;;;16.45;71.48;98541.88;5017722;28;19948;-61
2023/09/14 08:12:05;;;;;;;;;;;;;;;16.49;71.41;98542.84;5023639;28;19925;-62
2023/09/14 08:14:33;;;;;;;;;;;;;;;16.54;71.18;98542.63;5024423;28;20094;-61
2023/09/14 08:17:01;;;;;;;;;;;;;;;16.57;70.89;98544.72;5006575;28;19933;-62
2023/09/14 08:19:30;;;;;;;;;;;;;;;16.58;71.14;98546.31;5007412;28;19936;-61
2023/09/14 08:21:59;;;;;;;;;;;;;;;16.60;71.06;98552.25;5004581;28;19936;-61
2023/09/14 08:24:27;;;;;;;;;;;;;;;16.64;71.02;98547.72;5007050;28;19926;-62
2023/09/14 08:26:55;;;;;;;;;;;;;;;16.68;70.64;98547.84;5002084;28;19933;-62
2023/09/14 08:29:22;;;;;;;;;;;;;;;16.72;70.73;98559.78;5003585;28;19934;-61
2023/09/14 08:31:50;;;;;;;;;;;;;;;16.77;70.71;98556.81;4997708;28;20404;-62
2023/09/14 08:34:18;;;;;;;;;;;;;;;16.82;70.51;98572.28;5003666;28;19925;-61
2023/09/14 08:36:47;;;;;;;;;;;;;;;16.81;70.55;98567.94;5004404;28;19933;-61
2023/09/14 08:39:15;;;;;;;;;;;;;;;16.84;71.11;98564.53;5003295;28;19941;-62
2023/09/14 08:41:44;;;;;;;;;;;;;;;16.88;70.81;98570.94;5008348;28;19929;-61
2023/09/14 08:44:12;;;;;;;;;;;;;;;16.95;70.64;98565.72;5003729;28;20433;-61
2023/09/14 08:46:39;;;;;;;;;;;;;;;16.97;69.79;98571.66;5001488;28;19929;-62
2023/09/14 08:49:07;;;;;;;;;;;;;;;16.98;69.63;98573.28;5007122;28;19925;-61
2023/09/14 08:51:37;;;;;;;;;;;;;;;16.98;69.73;98571.31;5005397;28;19933;-61
2023/09/14 08:54:06;;;;;;;;;;;;;;;16.99;69.70;98577.63;4985317;28;19926;-61
2023/09/14 08:56:43;;;;;;;;;;;;;;;16.97;69.71;98568.94;5002204;28;19926;-61
2023/09/14 08:59:11;;;;;;;;;;;;;;;16.97;69.72;98574.41;5003574;28;19934;-61
2023/09/14 09:01:39;;;;;;;;;;;;;;;16.98;69.70;98570.53;5008021;28;20023;-61
2023/09/14 09:04:07;;;;;;;;;;;;;;;17.00;69.89;98569.06;5023983;28;19931;-62
2023/09/14 09:06:34;;;;;;;;;;;;;;;17.03;69.81;98573.06;5021207;28;19937;-61
2023/09/14 09:09:07;;;;;;;;;;;;;;;17.07;69.76;98568.50;5025266;28;20353;-61
2023/09/14 09:11:35;;;;;;;;;;;;;;;17.09;69.57;98568.16;5024178;28;19960;-62
2023/09/14 09:14:02;;;;;;;;;;;;;;;17.10;69.79;98556.03;5023958;28;19931;-61
2023/09/14 09:16:30;;;;;;;;;;;;;;;17.13;69.71;98556.16;5015802;28;20393;-61
2023/09/14 09:19:01;;;;;;;;;;;;;;;17.17;69.05;98564.53;5026165;28;19925;-61
2023/09/14 09:21:33;;;;;;;;;;;;;;;17.24;69.26;98562.03;5021733;28;20031;-63
2023/09/14 09:24:02;;;;;;;;;;;;;;;17.28;69.20;98555.53;5020713;28;19925;-61
2023/09/14 09:26:35;;;;;;;;;;;;;;;17.33;68.86;98560.00;5028359;28;19960;-61
2023/09/14 09:29:13;;;;;;;;;;;;;;;17.38;68.57;98561.75;5028097;28;19926;-65
2023/09/14 09:31:42;;;;;;;;;;;;;;;17.40;68.51;98559.44;5020497;28;19929;-61
2023/09/14 09:34:10;;;;;;;;;;;;;;;17.43;68.40;98564.25;5026191;28;19970;-61
2023/09/14 09:36:38;;;;;;;;;;;;;;;17.48;68.35;98562.09;5023735;28;19956;-61
2023/09/14 09:39:07;;;;;;;;;;;;;;;17.50;67.80;98570.00;5027752;28;19929;-61
2023/09/14 09:41:36;;;;;;;;;;;;;;;17.53;68.21;98561.09;5033992;28;19926;-61
2023/09/14 09:44:05;;;;;;;;;;;;;;;17.61;67.94;98557.41;5030093;28;20276;-61
2023/09/14 09:46:33;;;;;;;;;;;;;;;17.72;68.16;98553.09;5024498;28;19932;-61
2023/09/14 09:49:01;;;;;;;;;;;;;;;17.81;67.57;98550.25;5028145;28;19930;-61
2023/09/14 09:51:32;;;;;;;;;;;;;;;17.86;66.79;98550.03;5028167;28;19929;-62
2023/09/14 09:54:04;;;;;;;;;;;;;;;17.90;66.85;98547.41;5026863;28;19925;-62
2023/09/14 09:56:33;;;;;;;;;;;;;;;17.91;66.48;98549.78;5025222;28;19929;-62
2023/09/14 09:59:04;;;;;;;;;;;;;;;17.89;65.34;98562.25;5028862;28;19925;-61
2023/09/14 10:01:32;;;;;;;;;;;;;;;17.87;65.76;98559.06;5020067;28;22035;-61
2023/09/14 10:04:01;;;;;;;;;;;;;;;17.87;65.98;98562.63;5023364;28;19933;-62
2023/09/14 10:06:28;;;;;;;;;;;;;;;17.84;65.55;98562.50;5022151;28;19932;-61
2023/09/14 10:08:57;;;;;;;;;;;;;;;17.84;65.29;98562.50;5028207;28;19928;-61
2023/09/14 10:11:25;;;;;;;;;;;;;;;17.83;65.47;98558.16;5029057;28;19925;-62
2023/09/14 10:13:53;;;;;;;;;;;;;;;17.82;64.39;98554.59;5022904;28;19961;-62
2023/09/14 10:16:23;;;;;;;;;;;;;;;17.85;64.69;98553.13;5015432;28;19950;-62
2023/09/14 10:18:53;;;;;;;;;;;;;;;17.92;65.19;98550.59;5025188;28;19926;-62
2023/09/14 10:21:22;;;;;;;;;;;;;;;17.99;65.81;98548.88;5022383;28;19925;-61
2023/09/14 10:23:50;;;;;;;;;;;;;;;18.03;65.42;98546.22;5027826;28;19929;-61
2023/09/14 10:26:17;;;;;;;;;;;;;;;18.06;64.63;98545.56;5033165;28;20406;-62
2023/09/14 10:28:45;;;;;;;;;;;;;;;18.11;64.73;98545.31;5029806;28;19925;-62
2023/09/14 10:31:13;;;;;;;;;;;;;;;18.14;64.61;98546.56;5023286;28;20510;-61
2023/09/14 10:33:44;;;;;;;;;;;;;;;18.16;64.12;98547.81;5027187;28;19926;-62
2023/09/14 10:36:12;;;;;;;;;;;;;;;18.21;63.54;98547.56;5024654;28;19940;-62
2023/09/14 10:38:42;;;;;;;;;;;;;;;18.25;63.18;98545.75;5024309;28;20489;-60
2023/09/14 10:41:11;;;;;;;;;;;;;;;18.28;63.52;98542.31;5028598;28;19929;-61
2023/09/14 10:43:40;;;;;;;;;;;;;;;18.29;62.89;98541.16;5029463;28;19929;-61
2023/09/14 10:46:11;;;;;;;;;;;;;;;18.31;62.88;98544.34;5020875;28;19987;-61
2023/09/14 10:48:39;;;;;;;;;;;;;;;18.35;63.19;98543.66;5024586;28;19929;-62
2023/09/14 10:51:08;;;;;;;;;;;;;;;18.35;62.79;98544.47;5027068;28;19925;-61
2023/09/14 10:53:36;;;;;;;;;;;;;;;18.35;62.60;98543.66;5033055;28;19925;-62
2023/09/14 10:56:03;;;;;;;;;;;;;;;18.35;62.58;98546.41;5030563;28;19933;-62
2023/09/14 10:58:39;;;;;;;;;;;;;;;18.36;62.81;98548.03;5032160;28;20571;-61
2023/09/14 11:01:10;;;;;;;;;;;;;;;18.36;62.33;98551.56;5017075;28;20390;-61
2023/09/14 11:04:05;;;;;;;;;;;;;;;18.38;62.79;98545.75;5032003;28;19929;-61
2023/09/14 11:06:45;;;;;;;;;;;;;;;18.39;62.12;98550.09;5024767;28;19930;-61
2023/09/14 11:09:15;;;;;;;;;;;;;;;18.41;62.28;98548.56;5019984;28;20318;-61
2023/09/14 11:11:43;;;;;;;;;;;;;;;18.46;62.08;98533.78;5030628;28;19925;-61
2023/09/14 11:14:13;;;;;;;;;;;;;;;18.48;61.86;98534.22;5028297;28;19990;-61
2023/09/14 11:16:42;;;;;;;;;;;;;;;18.50;61.62;98534.69;5018931;28;19929;-62
2023/09/14 11:19:11;;;;;;;;;;;;;;;18.52;61.56;98529.63;5028374;28;19929;-62
2023/09/14 11:21:42;;;;;;;;;;;;;;;18.53;61.11;98522.97;5027233;28;20346;-61
2023/09/14 11:24:12;;;;;;;;;;;;;;;18.53;61.18;98522.97;5029291;28;19929;-62
2023/09/14 11:26:45;;;;;;;;;;;;;;;18.57;61.49;98524.69;5028106;28;19937;-62
2023/09/14 11:29:17;;;;;;;;;;;;;;;18.60;60.80;98523.19;5028996;28;19925;-62
2023/09/14 11:31:55;;;;;;;;;;;;;;;18.66;60.95;98521.00;5027808;28;20362;-61
2023/09/14 11:34:30;;;;;;;;;;;;;;;18.63;61.43;98528.00;5024242;28;19933;-61
2023/09/14 11:37:00;;;;;;;;;;;;;;;18.60;61.17;98523.19;5020632;28;19965;-61
2023/09/14 11:39:35;;;;;;;;;;;;;;;18.62;61.49;98523.66;5030702;28;19926;-63
2023/09/14 11:42:05;;;;;;;;;;;;;;;18.64;60.41;98520.53;5024078;28;19925;-61
2023/09/14 11:44:49;;;;;;;;;;;;;;;18.61;60.20;98519.28;5028235;28;19928;-62
2023/09/14 11:47:20;;;;;;;;;;;;;;;18.66;60.24;98515.50;5017840;28;19925;-62
2023/09/14 11:49:49;;;;;;;;;;;;;;;18.72;60.68;98520.44;5024945;28;19951;-62
2023/09/14 11:52:19;;;;;;;;;;;;;;;18.78;60.35;98512.72;5026279;28;20690;-62
2023/09/14 11:54:51;;;;;;;;;;;;;;;18.82;60.96;98511.69;5026423;28;19937;-62
2023/09/14 11:57:23;;;;;;;;;;;;;;;18.87;59.74;98507.88;5024579;28;19929;-61
2023/09/14 11:59:52;;;;;;;;;;;;;;;18.89;59.42;98507.50;5020273;28;19928;-62
2023/09/14 12:02:19;;;;;;;;;;;;;;;18.89;59.16;98508.31;5020309;28;19935;-62
2023/09/14 12:04:48;;;;;;;;;;;;;;;18.94;59.66;98496.25;5023876;28;19932;-62
2023/09/14 12:07:16;;;;;;;;;;;;;;;19.00;59.13;98503.09;5024764;28;19951;-62
2023/09/14 12:09:44;;;;;;;;;;;;;;;18.99;58.30;98490.47;5007592;28;19943;-63
2023/09/14 12:12:24;;;;;;;;;;;;;;;19.03;58.98;98496.91;5023923;28;19933;-63
2023/09/14 12:14:53;;;;;;;;;;;;;;;19.03;58.39;98491.38;5023511;28;19928;-62
2023/09/14 12:17:21;;;;;;;;;;;;;;;19.01;58.40;98497.22;5019997;28;20283;-63
2023/09/14 12:19:50;;;;;;;;;;;;;;;19.01;58.27;98499.19;5027873;28;19925;-61
2023/09/14 12:22:18;;;;;;;;;;;;;;;19.02;58.35;98492.53;5023644;28;19925;-62
2023/09/14 12:24:46;;;;;;;;;;;;;;;19.05;58.80;98500.88;5028522;28;19971;-63
2023/09/14 12:27:15;;;;;;;;;;;;;;;19.07;58.36;98489.53;5029605;28;19932;-62
2023/09/14 12:29:43;;;;;;;;;;;;;;;19.09;58.06;98492.72;5023958;28;20369;-63
2023/09/14 12:32:11;;;;;;;;;;;;;;;19.07;57.80;98484.03;5020418;28;19932;-62
2023/09/14 12:34:39;;;;;;;;;;;;;;;19.06;57.76;98485.94;5029481;28;19936;-62
2023/09/14 12:37:06;;;;;;;;;;;;;;;19.09;58.25;98481.72;5023329;28;19940;-62
2023/09/14 12:39:34;;;;;;;;;;;;;;;19.09;57.69;98484.47;5021313;28;19992;-63
2023/09/14 12:42:02;;;;;;;;;;;;;;;19.15;57.91;98480.28;5025120;28;19925;-62
2023/09/14 12:44:30;;;;;;;;;;;;;;;19.14;57.30;98475.94;5025310;28;19929;-62
2023/09/14 12:46:58;;;;;;;;;;;;;;;19.16;56.88;98473.63;5024673;28;20405;-62
2023/09/14 12:49:26;;;;;;;;;;;;;;;19.18;56.59;98474.09;5025838;28;19936;-62
2023/09/14 12:51:53;;;;;;;;;;;;;;;19.22;56.58;98474.94;5006869;28;19929;-63
2023/09/14 12:54:25;;;;;;;;;;;;;;;19.22;56.60;98477.72;5024944;28;19925;-62
2023/09/14 12:56:53;;;;;;;;;;;;;;;19.22;55.81;98476.91;5027136;28;19933;-64